aviador You're here:

KNAK Decoded Metar

ANNAPOLIS/NAVAL in MD, USA
Report Time2018-07-16 07:54:00
UTC Time2018-07-16 08:22:49
Flight Rules vfr VFR
WindCalm
Visibility9999 m
Phenomena:N/A
Clouds:N/A
Expected CloudBase > 800 ft AGL from Temp-Dew spread
CeilingNone
Temp25°C (ISA +10)
Dew Point23°C (89% RH)
QNH1016 hPa
Density Alt1,434 ft
Elevation7 ft
Report Wrong Elevation
Raw Report
KNAK 160754Z AUTO 00000KT 7SM CLR 25/23 A2999 RMK AO2 SLP158
T02500228 $=

Extra information for KNAK:More info

Metar Taf Metar & Taf Last 4 Metars F.Rules Stats Wind Profile Meteogram Temp Stats Airport Information Weather charts Add Link Nearby VenuesMetar ALERT Operation Metar Decoded Social comments

AIRNAV info for KNAK